Folla — LLPD — position and weather

sailwx.info

Track history (hours):
 
Tides and Currents Weather Stations Pressure Air Temp Water Temp Dewpoint Dewpoint Depression Visibility Wind Speed Wind Dir Waves Ship Positions

Folla

Last reported at 2015-Jan-23 10:33 UTC. Time now 2015-Jan-26 18:30 UTC.
Position N 67°32' E 013°58'.

Length 52 m; draft 5 m.

Type: Cargo ship. MMSI: 258253000.

Date/timePositionNaut miles runAvg speedWind from/ knotsBaromVisibWave heightAir tempDewpointWater temp
2015-Jan-23 10:33N 67°32' E 013°58'1111.3
2015-Jan-23 09:32N 67°21' E 013°46'1211.5
2015-Jan-23 08:31N 67°10' E 013°38'48 7.8
2015-Jan-23 02:17N 66°24' E 012°59'92 9.3
2015-Jan-22 16:19N 64°58' E 011°34'811.2
2015-Jan-22 15:33N 64°53' E 011°18'9 8.0
2015-Jan-22 14:28N 64°46' E 011°05'2 0.1
2015-Jan-21 13:33N 64°48' E 011°07'5 2.5
2015-Jan-21 11:33N 64°52' E 011°15'0 0.2
2015-Jan-21 10:33N 64°52' E 011°14'0 0.2
2015-Jan-21 09:33N 64°52' E 011°14'0 0.0
2015-Jan-21 08:33N 64°52' E 011°14'0 0.0
2015-Jan-21 07:33N 64°52' E 011°14'0 0.0
2015-Jan-21 06:33N 64°52' E 011°14'0 0.0
2015-Jan-21 05:33N 64°52' E 011°14'0 0.0
2015-Jan-21 04:33N 64°52' E 011°14'0 0.0
2015-Jan-21 03:33N 64°52' E 011°14'0 0.0
2015-Jan-21 02:33N 64°52' E 011°14'0 0.0
2015-Jan-21 01:33N 64°52' E 011°14'0 0.0
2015-Jan-21 00:33N 64°52' E 011°14'0 0.0
2015-Jan-20 23:33N 64°52' E 011°14'0 0.0
2015-Jan-20 22:33N 64°52' E 011°14'0 0.0
2015-Jan-20 21:33N 64°52' E 011°14'0 0.0
2015-Jan-20 20:33N 64°52' E 011°14'0 0.0
2015-Jan-20 19:33N 64°52' E 011°14'0 0.0
2015-Jan-20 18:33N 64°52' E 011°14'0 0.0
2015-Jan-20 17:33N 64°52' E 011°14'0 0.0
2015-Jan-20 16:33N 64°52' E 011°14'0 0.0
2015-Jan-20 15:33N 64°52' E 011°14'0 0.0
2015-Jan-20 14:33N 64°52' E 011°14'0 0.0
2015-Jan-20 13:33N 64°52' E 011°14'0 0.0
2015-Jan-20 12:33N 64°52' E 011°14'0 0.0
2015-Jan-20 11:33N 64°52' E 011°14'0 0.0
2015-Jan-20 10:33N 64°52' E 011°14'0 0.0
2015-Jan-20 09:33N 64°52' E 011°14'0 0.0
2015-Jan-20 08:33N 64°52' E 011°14'0 0.0
2015-Jan-20 07:33N 64°52' E 011°14'0 0.0
2015-Jan-20 06:33N 64°52' E 011°14'0 0.0
2015-Jan-20 05:33N 64°52' E 011°14'0 0.0
2015-Jan-20 04:33N 64°52' E 011°14'0 0.0
2015-Jan-20 03:33N 64°52' E 011°14'0 0.0
2015-Jan-20 02:33N 64°52' E 011°14'0 0.0
2015-Jan-20 01:33N 64°52' E 011°14'0 0.0
2015-Jan-20 00:34N 64°52' E 011°14'0 0.0
2015-Jan-19 23:33N 64°52' E 011°14'0 0.0
2015-Jan-19 22:33N 64°52' E 011°14'3 3.2
2015-Jan-19 21:33N 64°54' E 011°20'8110.2
2015-Jan-19 13:33N 66°08' E 012°40'1111.2
2015-Jan-19 12:33N 66°19' E 012°40'6 6.3
2015-Jan-19 11:34N 66°25' E 012°45'1311.1
2015-Jan-19 10:25N 66°38' E 012°47'4410.9
2015-Jan-19 06:22N 67°15' E 013°46'1311.3
2015-Jan-19 05:11N 67°26' E 014°07'711.2
2015-Jan-19 04:31N 67°32' E 014°16'1111.7
2015-Jan-19 03:33N 67°43' E 014°30'150 6.8
2015-Jan-18 05:33N 69°37' E 018°55'8 0.5
2015-Jan-17 12:07N 69°44' E 019°05'4 7.8
2015-Jan-17 11:33N 69°41' E 018°59'0 0.0
2015-Jan-17 10:33N 69°41' E 018°59'3 3.2
2015-Jan-17 09:33N 69°38' E 018°56'238 7.6
2015-Jan-16 02:26N 66°24' E 012°46'2 2.4
2015-Jan-16 01:33N 66°23' E 012°43'8710.5
2015-Jan-15 17:16N 64°60' E 011°37'811.3
2015-Jan-15 16:33N 64°55' E 011°22'6 5.7
2015-Jan-15 15:34N 64°51' E 011°12'  
Track history (hours):
 
Tides and Currents Weather Stations Pressure Air Temp Water Temp Dewpoint Dewpoint Depression Visibility Wind Speed Wind Dir Waves Ship Positions

Folla

Last reported at 2015-Jan-23 10:33 UTC. Time now 2015-Jan-26 18:30 UTC.
Position N 67°32' E 013°58'.

Length 52 m; draft 5 m.

Type: Cargo ship. MMSI: 258253000.

Date/timePositionNaut miles runAvg speedWind from/ knotsBaromVisibWave heightAir tempDewpointWater temp
2015-Jan-23 10:33N 67°32' E 013°58'1111.3
2015-Jan-23 09:32N 67°21' E 013°46'1211.5
2015-Jan-23 08:31N 67°10' E 013°38'48 7.8
2015-Jan-23 02:17N 66°24' E 012°59'92 9.3
2015-Jan-22 16:19N 64°58' E 011°34'811.2
2015-Jan-22 15:33N 64°53' E 011°18'9 8.0
2015-Jan-22 14:28N 64°46' E 011°05'2 0.1
2015-Jan-21 13:33N 64°48' E 011°07'5 2.5
2015-Jan-21 11:33N 64°52' E 011°15'0 0.2
2015-Jan-21 10:33N 64°52' E 011°14'0 0.2
2015-Jan-21 09:33N 64°52' E 011°14'0 0.0
2015-Jan-21 08:33N 64°52' E 011°14'0 0.0
2015-Jan-21 07:33N 64°52' E 011°14'0 0.0
2015-Jan-21 06:33N 64°52' E 011°14'0 0.0
2015-Jan-21 05:33N 64°52' E 011°14'0 0.0
2015-Jan-21 04:33N 64°52' E 011°14'0 0.0
2015-Jan-21 03:33N 64°52' E 011°14'0 0.0
2015-Jan-21 02:33N 64°52' E 011°14'0 0.0
2015-Jan-21 01:33N 64°52' E 011°14'0 0.0
2015-Jan-21 00:33N 64°52' E 011°14'0 0.0
2015-Jan-20 23:33N 64°52' E 011°14'0 0.0
2015-Jan-20 22:33N 64°52' E 011°14'0 0.0
2015-Jan-20 21:33N 64°52' E 011°14'0 0.0
2015-Jan-20 20:33N 64°52' E 011°14'0 0.0
2015-Jan-20 19:33N 64°52' E 011°14'0 0.0
2015-Jan-20 18:33N 64°52' E 011°14'0 0.0
2015-Jan-20 17:33N 64°52' E 011°14'0 0.0
2015-Jan-20 16:33N 64°52' E 011°14'0 0.0
2015-Jan-20 15:33N 64°52' E 011°14'0 0.0
2015-Jan-20 14:33N 64°52' E 011°14'0 0.0
2015-Jan-20 13:33N 64°52' E 011°14'0 0.0
2015-Jan-20 12:33N 64°52' E 011°14'0 0.0
2015-Jan-20 11:33N 64°52' E 011°14'0 0.0
2015-Jan-20 10:33N 64°52' E 011°14'0 0.0
2015-Jan-20 09:33N 64°52' E 011°14'0 0.0
2015-Jan-20 08:33N 64°52' E 011°14'0 0.0
2015-Jan-20 07:33N 64°52' E 011°14'0 0.0
2015-Jan-20 06:33N 64°52' E 011°14'0 0.0
2015-Jan-20 05:33N 64°52' E 011°14'0 0.0
2015-Jan-20 04:33N 64°52' E 011°14'0 0.0
2015-Jan-20 03:33N 64°52' E 011°14'0 0.0
2015-Jan-20 02:33N 64°52' E 011°14'0 0.0
2015-Jan-20 01:33N 64°52' E 011°14'0 0.0
2015-Jan-20 00:34N 64°52' E 011°14'0 0.0
2015-Jan-19 23:33N 64°52' E 011°14'0 0.0
2015-Jan-19 22:33N 64°52' E 011°14'3 3.2
2015-Jan-19 21:33N 64°54' E 011°20'8110.2
2015-Jan-19 13:33N 66°08' E 012°40'1111.2
2015-Jan-19 12:33N 66°19' E 012°40'6 6.3
2015-Jan-19 11:34N 66°25' E 012°45'1311.1
2015-Jan-19 10:25N 66°38' E 012°47'4410.9
2015-Jan-19 06:22N 67°15' E 013°46'1311.3
2015-Jan-19 05:11N 67°26' E 014°07'711.2
2015-Jan-19 04:31N 67°32' E 014°16'1111.7
2015-Jan-19 03:33N 67°43' E 014°30'150 6.8
2015-Jan-18 05:33N 69°37' E 018°55'8 0.5
2015-Jan-17 12:07N 69°44' E 019°05'4 7.8
2015-Jan-17 11:33N 69°41' E 018°59'0 0.0
2015-Jan-17 10:33N 69°41' E 018°59'3 3.2
2015-Jan-17 09:33N 69°38' E 018°56'238 7.6
2015-Jan-16 02:26N 66°24' E 012°46'2 2.4
2015-Jan-16 01:33N 66°23' E 012°43'8710.5
2015-Jan-15 17:16N 64°60' E 011°37'811.3
2015-Jan-15 16:33N 64°55' E 011°22'6 5.7
2015-Jan-15 15:34N 64°51' E 011°12'  

Dump ship's entire track history